createdAt,value
2022-11-21T00:00:33.287Z,4.60
2022-11-21T00:03:01.773Z,4.70
2022-11-21T00:05:29.857Z,4.60
2022-11-21T00:07:57.379Z,4.70
2022-11-21T00:10:25.279Z,4.70
2022-11-21T00:12:56.110Z,4.60
2022-11-21T00:15:25.259Z,4.60
2022-11-21T00:17:52.534Z,4.60
2022-11-21T00:20:20.777Z,4.60
2022-11-21T00:22:48.394Z,4.70
2022-11-21T00:25:15.806Z,4.60
2022-11-21T00:27:42.821Z,4.60
2022-11-21T00:30:11.346Z,4.50
2022-11-21T00:32:38.490Z,4.50
2022-11-21T00:35:06.292Z,4.50
2022-11-21T00:37:34.000Z,4.60
2022-11-21T00:40:01.042Z,4.60
2022-11-21T00:42:27.751Z,4.60
2022-11-21T00:44:54.432Z,4.50
2022-11-21T00:47:21.094Z,4.60
2022-11-21T00:49:48.132Z,4.60
2022-11-21T00:52:16.147Z,4.60
2022-11-21T00:54:42.836Z,4.70
2022-11-21T00:57:09.722Z,4.80
2022-11-21T00:59:36.412Z,4.80
2022-11-21T01:02:03.202Z,4.90
2022-11-21T01:04:34.236Z,4.90
2022-11-21T01:07:01.314Z,5.40
2022-11-21T01:09:28.773Z,5.10
2022-11-21T01:11:56.668Z,5.10
2022-11-21T01:14:24.106Z,5.10
2022-11-21T01:16:50.850Z,5.10
2022-11-21T01:19:17.672Z,5.10
2022-11-21T01:21:44.400Z,5.20
2022-11-21T01:24:12.429Z,5.20
2022-11-21T01:26:39.473Z,5.20
2022-11-21T01:29:07.100Z,5.20
2022-11-21T01:31:33.938Z,5.20
2022-11-21T01:34:01.634Z,5.30
2022-11-21T01:36:33.432Z,5.30
2022-11-21T01:39:02.733Z,5.30
2022-11-21T01:41:33.608Z,5.30
2022-11-21T01:44:01.444Z,5.30
2022-11-21T01:46:28.766Z,5.30
2022-11-21T01:49:15.514Z,5.30
2022-11-21T01:51:59.262Z,5.30
2022-11-21T01:54:41.168Z,5.30
2022-11-21T01:57:28.658Z,5.20
2022-11-21T02:00:11.381Z,5.10
2022-11-21T02:02:42.449Z,5.00
2022-11-21T02:05:16.435Z,5.00
2022-11-21T02:07:46.182Z,5.10
2022-11-21T02:10:13.562Z,5.00
2022-11-21T02:12:43.962Z,5.00
2022-11-21T02:15:11.759Z,5.10
2022-11-21T02:17:38.541Z,5.00
2022-11-21T02:20:11.214Z,5.00
2022-11-21T02:22:49.358Z,5.00
2022-11-21T02:25:19.657Z,5.00
2022-11-21T02:27:48.792Z,5.00
2022-11-21T02:30:16.140Z,5.00
2022-11-21T02:32:47.056Z,5.10
2022-11-21T02:35:16.396Z,5.10
2022-11-21T02:37:48.232Z,5.10
2022-11-21T02:40:25.466Z,5.10
2022-11-21T02:43:14.810Z,5.10
2022-11-21T02:45:43.819Z,5.10
2022-11-21T02:48:11.402Z,5.10
2022-11-21T02:50:43.035Z,5.10
2022-11-21T02:53:12.134Z,5.20
2022-11-21T02:55:39.215Z,5.10
2022-11-21T02:58:06.648Z,5.10
2022-11-21T03:00:35.397Z,5.10
2022-11-21T03:03:02.211Z,5.20
2022-11-21T03:05:28.995Z,5.20
2022-11-21T03:07:55.963Z,5.20
2022-11-21T03:10:23.030Z,5.30
2022-11-21T03:12:49.725Z,5.30
2022-11-21T03:15:16.800Z,5.30
2022-11-21T03:17:43.624Z,5.40
2022-11-21T03:20:11.243Z,5.30
2022-11-21T03:22:37.986Z,5.30
2022-11-21T03:25:05.045Z,5.30
2022-11-21T03:27:31.724Z,5.40
2022-11-21T03:29:58.430Z,5.30
2022-11-21T03:32:25.167Z,5.40
2022-11-21T03:34:51.896Z,5.40
2022-11-21T03:37:18.581Z,5.40
2022-11-21T03:39:45.264Z,5.40
2022-11-21T03:42:11.996Z,5.50
2022-11-21T03:44:38.663Z,5.40
2022-11-21T03:47:05.360Z,5.50
2022-11-21T03:49:32.039Z,5.40
2022-11-21T03:51:58.750Z,5.50
2022-11-21T03:54:25.654Z,5.50
2022-11-21T03:56:52.651Z,5.50
2022-11-21T03:59:19.345Z,5.50
2022-11-21T04:01:46.639Z,5.50
2022-11-21T04:04:13.454Z,5.50
2022-11-21T04:06:40.324Z,5.50
2022-11-21T04:09:07.014Z,5.50
2022-11-21T04:11:33.729Z,5.50
2022-11-21T04:14:00.396Z,5.50
2022-11-21T04:16:27.111Z,5.50
2022-11-21T04:18:53.788Z,5.40
2022-11-21T04:21:20.847Z,5.50
2022-11-21T04:23:47.514Z,5.40
2022-11-21T04:26:14.233Z,5.40
2022-11-21T04:28:40.981Z,5.30
2022-11-21T04:31:11.164Z,5.30
2022-11-21T04:33:39.283Z,5.30
2022-11-21T04:36:07.337Z,5.30
2022-11-21T04:38:34.053Z,5.30
2022-11-21T04:41:00.811Z,5.20
2022-11-21T04:43:27.595Z,5.20
2022-11-21T04:45:54.318Z,5.20
2022-11-21T04:48:21.012Z,5.20
2022-11-21T04:50:47.723Z,5.10
2022-11-21T04:53:14.487Z,5.10
2022-11-21T04:55:41.160Z,5.10
2022-11-21T04:58:07.815Z,5.10
2022-11-21T05:00:35.152Z,5.10
2022-11-21T05:03:03.903Z,5.10
2022-11-21T05:05:30.836Z,5.10
2022-11-21T05:07:57.539Z,5.10
2022-11-21T05:10:24.305Z,5.10
2022-11-21T05:13:17.775Z,5.00
2022-11-21T05:15:44.944Z,5.10
2022-11-21T05:18:11.765Z,5.10
2022-11-21T05:20:38.549Z,5.10
2022-11-21T05:23:05.366Z,5.00
2022-11-21T05:25:32.106Z,5.00
2022-11-21T05:27:58.760Z,5.00
2022-11-21T05:30:25.569Z,5.00
2022-11-21T05:32:52.259Z,5.00
2022-11-21T05:35:19.116Z,5.00
2022-11-21T05:37:45.840Z,5.00
2022-11-21T05:40:12.766Z,5.10
2022-11-21T05:42:59.508Z,5.00
2022-11-21T05:45:26.920Z,5.10
2022-11-21T05:47:53.586Z,5.10
2022-11-21T05:50:20.276Z,5.10
2022-11-21T05:52:47.093Z,5.00
2022-11-21T05:55:13.865Z,5.00
2022-11-21T05:57:40.513Z,5.00
2022-11-21T06:00:07.850Z,4.90
2022-11-21T06:02:53.645Z,5.00
2022-11-21T06:05:20.364Z,5.00
2022-11-21T06:07:47.167Z,5.00
2022-11-21T06:10:13.956Z,5.00
2022-11-21T06:12:40.617Z,5.00
2022-11-21T06:15:07.879Z,5.00
2022-11-21T06:17:34.580Z,4.90
2022-11-21T06:20:02.020Z,4.90
2022-11-21T06:22:28.733Z,4.80
2022-11-21T06:24:55.393Z,4.80
2022-11-21T06:27:22.141Z,4.80
2022-11-21T06:29:48.816Z,4.90
2022-11-21T06:32:15.761Z,5.00
2022-11-21T06:34:42.469Z,5.00
2022-11-21T06:37:09.147Z,5.00
2022-11-21T06:39:35.841Z,5.00
2022-11-21T06:42:02.549Z,5.00
2022-11-21T06:44:29.578Z,5.00
2022-11-21T06:46:56.551Z,5.00
2022-11-21T06:49:23.315Z,5.10
2022-11-21T06:51:50.048Z,5.10
2022-11-21T06:54:17.270Z,5.10
2022-11-21T06:56:44.248Z,5.20
2022-11-21T06:59:11.041Z,5.20
2022-11-21T07:01:37.946Z,5.20
2022-11-21T07:04:04.796Z,5.20
2022-11-21T07:06:31.519Z,5.20
2022-11-21T07:09:31.782Z,5.20
2022-11-21T07:11:44.924Z,5.20
2022-11-21T07:14:11.827Z,5.20
2022-11-21T07:16:38.892Z,5.20
2022-11-21T07:19:05.790Z,5.20
2022-11-21T07:21:32.589Z,5.20
2022-11-21T07:23:59.304Z,5.20
2022-11-21T07:26:25.978Z,5.20
2022-11-21T07:28:52.639Z,5.20
2022-11-21T07:31:19.378Z,5.20
2022-11-21T07:33:47.501Z,5.30
2022-11-21T07:36:14.235Z,5.30
2022-11-21T07:38:41.747Z,5.30
2022-11-21T07:41:09.286Z,5.30
2022-11-21T07:43:35.988Z,5.40
2022-11-21T07:46:02.726Z,5.40
2022-11-21T07:48:29.484Z,5.50
2022-11-21T07:50:56.163Z,5.50
2022-11-21T07:53:22.911Z,5.50
2022-11-21T07:55:49.590Z,5.50
2022-11-21T07:58:17.545Z,5.50
2022-11-21T08:00:44.362Z,5.50
2022-11-21T08:03:12.711Z,5.50
2022-11-21T08:05:43.845Z,5.60
2022-11-21T08:08:12.238Z,5.60
2022-11-21T08:10:44.782Z,5.60
2022-11-21T08:13:12.611Z,5.70
2022-11-21T08:15:39.877Z,5.70
2022-11-21T08:18:10.189Z,5.70
2022-11-21T08:20:36.946Z,5.80
2022-11-21T08:23:03.795Z,5.80
2022-11-21T08:25:30.527Z,5.80
2022-11-21T08:27:58.137Z,5.90
2022-11-21T08:30:25.294Z,6.00
2022-11-21T08:32:52.081Z,6.00
2022-11-21T08:35:19.182Z,6.10
2022-11-21T08:37:45.854Z,6.50
2022-11-21T08:40:12.571Z,8.70
2022-11-21T08:42:39.252Z,11.40
2022-11-21T08:45:06.429Z,12.70
2022-11-21T08:47:34.207Z,13.20
2022-11-21T08:50:05.764Z,13.20
2022-11-21T08:52:35.504Z,14.50
2022-11-21T08:55:02.314Z,15.60
2022-11-21T08:57:28.991Z,15.00
2022-11-21T08:59:55.683Z,13.70
2022-11-21T09:02:22.393Z,12.60
2022-11-21T09:04:49.506Z,11.50
2022-11-21T09:07:16.211Z,10.80
2022-11-21T09:09:42.930Z,9.80
2022-11-21T09:12:09.669Z,9.20
2022-11-21T09:14:55.000Z,8.80
2022-11-21T09:17:40.625Z,8.50
2022-11-21T09:20:07.895Z,8.50
2022-11-21T09:22:34.645Z,8.70
2022-11-21T09:25:01.446Z,9.20
2022-11-21T09:27:28.271Z,9.00
2022-11-21T09:29:54.979Z,8.70
2022-11-21T09:32:22.164Z,8.50
2022-11-21T09:34:48.970Z,9.90
2022-11-21T09:37:15.803Z,12.90
2022-11-21T09:39:42.516Z,14.50
2022-11-21T09:42:12.009Z,13.80
2022-11-21T09:45:10.062Z,12.90
2022-11-21T09:47:42.562Z,11.90
2022-11-21T09:50:12.064Z,11.10
2022-11-21T09:52:42.115Z,10.50
2022-11-21T09:55:23.054Z,10.10
2022-11-21T09:57:50.440Z,9.50
2022-11-21T10:00:23.091Z,9.00
2022-11-21T10:02:51.671Z,8.80
2022-11-21T10:05:25.789Z,8.70
2022-11-21T10:07:57.685Z,8.80
2022-11-21T10:10:50.805Z,9.10
2022-11-21T10:13:51.891Z,10.20
2022-11-21T10:16:42.153Z,11.30
2022-11-21T10:19:33.875Z,13.30
2022-11-21T10:22:33.803Z,14.60
2022-11-21T10:25:14.353Z,16.10
2022-11-21T10:27:43.850Z,17.30
2022-11-21T10:30:19.279Z,16.40
2022-11-21T10:33:20.716Z,15.80
2022-11-21T10:35:51.862Z,14.70
2022-11-21T10:38:21.535Z,13.40
2022-11-21T10:41:14.150Z,12.30
2022-11-21T10:44:02.451Z,11.20
2022-11-21T10:46:29.166Z,10.50
2022-11-21T10:49:01.716Z,10.10
2022-11-21T10:51:56.159Z,9.70
2022-11-21T10:54:34.937Z,9.70
2022-11-21T10:57:15.342Z,9.80
2022-11-21T11:00:13.309Z,10.00
2022-11-21T11:03:02.109Z,9.90
2022-11-21T11:05:30.254Z,9.70
2022-11-21T11:08:00.355Z,9.50
2022-11-21T11:10:28.559Z,9.30
2022-11-21T11:13:44.448Z,9.30
2022-11-21T11:16:11.469Z,9.30
2022-11-21T11:18:47.158Z,9.10
2022-11-21T11:21:19.505Z,9.00
2022-11-21T11:23:48.210Z,8.80
2022-11-21T11:26:30.662Z,8.70
2022-11-21T11:29:31.446Z,8.70
2022-11-21T11:32:27.365Z,8.60
2022-11-21T11:35:00.167Z,8.40
2022-11-21T11:37:40.835Z,8.20
2022-11-21T11:40:38.077Z,8.10
2022-11-21T11:43:23.515Z,8.10
2022-11-21T11:46:53.092Z,8.00
2022-11-21T11:50:10.314Z,8.00
2022-11-21T11:52:52.860Z,7.80
2022-11-21T11:55:34.360Z,7.70
2022-11-21T11:58:03.615Z,7.60
2022-11-21T12:00:48.131Z,7.50
2022-11-21T12:03:22.541Z,7.60
2022-11-21T12:06:04.750Z,7.70
2022-11-21T12:08:43.120Z,7.70
2022-11-21T12:11:42.316Z,7.60
2022-11-21T12:14:39.274Z,7.60
2022-11-21T12:17:07.909Z,8.20
2022-11-21T12:19:35.784Z,8.70
2022-11-21T12:22:06.444Z,8.80
2022-11-21T12:24:39.802Z,9.00
2022-11-21T12:27:35.891Z,8.90
2022-11-21T12:30:35.072Z,8.90
2022-11-21T12:33:19.883Z,8.70
2022-11-21T12:36:17.381Z,8.60
2022-11-21T12:38:52.016Z,8.40
2022-11-21T12:41:46.036Z,8.20
2022-11-21T12:44:42.656Z,8.00
2022-11-21T12:48:11.068Z,7.80
2022-11-21T12:51:11.808Z,7.60
2022-11-21T12:54:20.824Z,7.60
2022-11-21T12:57:11.735Z,7.70
2022-11-21T13:00:14.906Z,7.80
2022-11-21T13:03:05.505Z,7.70
2022-11-21T13:05:37.833Z,7.80
2022-11-21T13:08:24.009Z,8.10
2022-11-21T13:11:41.419Z,8.30
2022-11-21T13:14:14.416Z,8.40
2022-11-21T13:16:48.344Z,8.30
2022-11-21T13:19:24.343Z,8.30
2022-11-21T13:21:56.099Z,8.40
2022-11-21T13:24:44.661Z,8.80
2022-11-21T13:27:41.301Z,9.20
2022-11-21T13:30:08.042Z,9.30
2022-11-21T13:32:43.697Z,9.40
2022-11-21T13:35:19.541Z,9.40
2022-11-21T13:37:52.497Z,9.30
2022-11-21T13:40:31.065Z,9.30
2022-11-21T13:45:59.386Z,8.90
2022-11-21T13:48:32.056Z,8.80
2022-11-21T13:51:24.936Z,8.70
2022-11-21T13:54:23.064Z,8.50
2022-11-21T13:57:06.922Z,8.30
2022-11-21T13:59:52.414Z,8.10
2022-11-21T14:02:43.111Z,8.00
2022-11-21T14:05:25.767Z,7.90
2022-11-21T14:07:52.762Z,7.90
2022-11-21T14:10:25.686Z,7.80
2022-11-21T14:12:55.432Z,7.90
2022-11-21T14:15:47.180Z,7.90
2022-11-21T14:18:25.024Z,7.80
2022-11-21T14:21:00.524Z,7.80
2022-11-21T14:23:30.665Z,7.60
2022-11-21T14:26:02.538Z,7.60
2022-11-21T14:28:31.875Z,7.60
2022-11-21T14:31:04.046Z,7.50
2022-11-21T14:33:36.244Z,7.30
2022-11-21T14:36:18.843Z,7.20
2022-11-21T14:38:50.947Z,7.10
2022-11-21T14:41:27.176Z,7.00
2022-11-21T14:44:02.832Z,6.90
2022-11-21T14:46:32.337Z,6.80
2022-11-21T14:49:17.066Z,6.80
2022-11-21T14:51:48.173Z,6.80
2022-11-21T14:54:28.375Z,6.70
2022-11-21T14:57:06.395Z,6.70
2022-11-21T14:59:39.931Z,6.60
2022-11-21T15:02:12.934Z,6.50
2022-11-21T15:04:42.388Z,6.40
2022-11-21T15:10:30.500Z,6.20
2022-11-21T15:13:09.378Z,6.10
2022-11-21T15:15:40.971Z,6.10
2022-11-21T15:18:27.876Z,6.00
2022-11-21T15:21:00.827Z,5.90
2022-11-21T15:23:44.084Z,5.70
2022-11-21T15:26:32.662Z,5.60
2022-11-21T15:29:03.511Z,5.40
2022-11-21T15:31:30.295Z,5.10
2022-11-21T15:37:15.640Z,4.80
2022-11-21T15:42:38.174Z,4.40
2022-11-21T15:45:23.342Z,4.30
2022-11-21T15:47:50.095Z,4.10
2022-11-21T15:50:17.747Z,3.90
2022-11-21T15:52:50.143Z,3.80
2022-11-21T15:55:26.450Z,3.70
2022-11-21T15:57:12.695Z,5.00
2022-11-21T15:57:13.500Z,4.60
2022-11-21T15:57:15.545Z,6.30
2022-11-21T15:57:53.339Z,3.60
2022-11-21T16:00:20.152Z,3.40
2022-11-21T16:02:47.422Z,3.40
2022-11-21T16:05:15.595Z,3.30
2022-11-21T16:07:42.491Z,3.20
2022-11-21T16:10:18.403Z,3.10
2022-11-21T16:12:52.540Z,3.00
2022-11-21T16:15:19.210Z,2.90
2022-11-21T16:17:47.607Z,2.90
2022-11-21T16:20:15.234Z,2.80
2022-11-21T16:22:47.079Z,2.80
2022-11-21T16:25:14.419Z,2.70
2022-11-21T16:27:41.208Z,2.70
2022-11-21T16:30:08.668Z,2.60
2022-11-21T16:32:35.512Z,2.60
2022-11-21T16:35:02.272Z,2.50
2022-11-21T16:37:31.581Z,2.50
2022-11-21T16:39:58.357Z,2.40
2022-11-21T16:42:25.259Z,2.30
2022-11-21T16:44:51.990Z,2.30
2022-11-21T16:47:18.853Z,2.20
2022-11-21T16:49:48.636Z,2.20
2022-11-21T16:52:16.017Z,2.10
2022-11-21T16:54:42.788Z,2.00
2022-11-21T16:57:09.566Z,2.00
2022-11-21T16:59:36.344Z,1.90
2022-11-21T17:02:03.181Z,1.80
2022-11-21T17:04:30.773Z,1.80
2022-11-21T17:06:58.340Z,1.70
2022-11-21T17:09:25.067Z,1.60
2022-11-21T17:11:51.851Z,1.60
2022-11-21T17:14:18.664Z,1.60
2022-11-21T17:16:45.922Z,1.50
2022-11-21T17:19:13.569Z,1.50
2022-11-21T17:21:40.443Z,1.40
2022-11-21T17:24:07.331Z,1.40
2022-11-21T17:30:15.879Z,1.40
2022-11-21T17:32:42.594Z,1.40
2022-11-21T17:35:09.539Z,1.40
2022-11-21T17:37:36.243Z,1.30
2022-11-21T17:40:03.864Z,1.30
2022-11-21T17:42:30.617Z,1.30
2022-11-21T17:44:57.303Z,1.20
2022-11-21T17:47:25.058Z,1.10
2022-11-21T17:49:51.761Z,1.10
2022-11-21T17:52:18.459Z,1.10
2022-11-21T17:54:45.225Z,1.00
2022-11-21T17:57:11.897Z,0.90
2022-11-21T17:59:39.297Z,0.90
2022-11-21T18:02:06.532Z,0.90
2022-11-21T18:04:34.551Z,0.80
2022-11-21T18:07:01.699Z,0.80
2022-11-21T18:09:28.768Z,0.80
2022-11-21T18:11:55.603Z,0.80
2022-11-21T18:14:22.595Z,0.80
2022-11-21T18:16:53.018Z,0.70
2022-11-21T18:19:20.015Z,0.80
2022-11-21T18:21:46.841Z,0.70
2022-11-21T18:24:13.624Z,0.70
2022-11-21T18:26:40.814Z,0.70
2022-11-21T18:31:56.376Z,0.60
2022-11-21T18:34:23.064Z,0.50
2022-11-21T18:36:49.828Z,0.50
2022-11-21T18:39:16.548Z,0.40
2022-11-21T18:41:44.071Z,0.30
2022-11-21T18:44:14.572Z,0.40
2022-11-21T18:46:43.945Z,0.40
2022-11-21T18:49:10.750Z,0.30
2022-11-21T18:51:37.798Z,0.40
2022-11-21T18:54:08.680Z,0.40
2022-11-21T18:56:37.038Z,0.30
2022-11-21T18:59:05.844Z,0.30
2022-11-21T19:01:34.292Z,0.20
2022-11-21T19:04:01.192Z,0.20
2022-11-21T19:06:28.262Z,0.20
2022-11-21T19:08:57.415Z,0.20
2022-11-21T19:11:26.432Z,0.20
2022-11-21T19:13:55.500Z,0.10
2022-11-21T19:16:27.179Z,0.10
2022-11-21T19:19:26.529Z,0.10
2022-11-21T19:21:42.225Z,0.00
2022-11-21T19:24:14.119Z,0.10
2022-11-21T19:26:41.815Z,0.20
2022-11-21T19:29:09.828Z,0.20
2022-11-21T19:31:44.217Z,0.20
2022-11-21T19:34:13.226Z,0.30
2022-11-21T19:36:40.151Z,0.20
2022-11-21T19:39:06.896Z,0.20
2022-11-21T19:41:34.670Z,0.20
2022-11-21T19:44:02.425Z,0.20
2022-11-21T19:46:35.430Z,0.20
2022-11-21T19:49:03.061Z,0.20
2022-11-21T19:51:35.080Z,0.20
2022-11-21T19:54:03.512Z,0.30
2022-11-21T19:56:30.288Z,0.40
2022-11-21T19:58:57.734Z,0.50
2022-11-21T20:01:29.883Z,0.50
2022-11-21T20:04:00.202Z,0.50
2022-11-21T20:06:32.108Z,0.60
2022-11-21T20:09:04.320Z,0.60
2022-11-21T20:11:33.287Z,0.70
2022-11-21T20:14:00.292Z,0.70
2022-11-21T20:16:31.444Z,0.80
2022-11-21T20:19:00.542Z,0.80
2022-11-21T20:21:28.228Z,0.80
2022-11-21T20:23:55.316Z,0.80
2022-11-21T20:26:22.779Z,0.90
2022-11-21T20:28:50.491Z,0.90
2022-11-21T20:31:27.036Z,0.90
2022-11-21T20:34:06.199Z,0.90
2022-11-21T20:36:35.049Z,1.00
2022-11-21T20:39:04.770Z,1.10
2022-11-21T20:41:33.720Z,1.20
2022-11-21T20:46:50.720Z,1.40
2022-11-21T20:49:17.852Z,1.30
2022-11-21T20:54:31.561Z,1.30
2022-11-21T20:56:58.548Z,1.30
2022-11-21T20:59:26.998Z,1.30
2022-11-21T21:01:54.042Z,1.30
2022-11-21T21:04:20.756Z,1.30
2022-11-21T21:06:47.440Z,1.30
2022-11-21T21:09:14.262Z,1.30
2022-11-21T21:11:56.191Z,1.30
2022-11-21T21:14:23.171Z,1.30
2022-11-21T21:16:50.365Z,1.20
2022-11-21T21:19:17.772Z,1.30
2022-11-21T21:21:44.569Z,1.40
2022-11-21T21:24:11.623Z,1.30
2022-11-21T21:26:42.924Z,1.30
2022-11-21T21:29:16.724Z,1.20
2022-11-21T21:31:50.032Z,1.30
2022-11-21T21:34:17.827Z,1.30
2022-11-21T21:36:44.818Z,1.30
2022-11-21T21:39:11.939Z,1.30
2022-11-21T21:41:44.719Z,1.30
2022-11-21T21:44:12.331Z,1.40
2022-11-21T21:46:38.997Z,1.40
2022-11-21T21:49:05.690Z,1.40
2022-11-21T21:51:32.579Z,1.40
2022-11-21T21:54:00.221Z,1.40
2022-11-21T21:56:28.610Z,1.40
2022-11-21T21:58:57.331Z,1.40
2022-11-21T22:01:29.402Z,1.40
2022-11-21T22:03:58.449Z,1.40
2022-11-21T22:06:26.024Z,1.40
2022-11-21T22:08:54.461Z,1.40
2022-11-21T22:11:28.848Z,1.40
2022-11-21T22:14:01.147Z,1.40
2022-11-21T22:16:28.633Z,1.40
2022-11-21T22:18:55.519Z,1.40
2022-11-21T22:21:24.466Z,1.40
2022-11-21T22:24:17.739Z,1.40
2022-11-21T22:26:38.466Z,1.40
2022-11-21T22:29:05.375Z,1.40
2022-11-21T22:31:32.682Z,1.30
2022-11-21T22:34:00.435Z,1.30
2022-11-21T22:36:27.193Z,1.30
2022-11-21T22:38:55.327Z,1.30
2022-11-21T22:41:24.429Z,1.30
2022-11-21T22:43:56.186Z,1.20
2022-11-21T22:46:24.008Z,1.30
2022-11-21T22:48:50.947Z,1.30
2022-11-21T22:51:20.897Z,1.20
2022-11-21T22:53:48.538Z,1.20
2022-11-21T22:56:20.301Z,1.20
2022-11-21T22:58:47.363Z,1.20
2022-11-21T23:01:17.570Z,1.10
2022-11-21T23:03:44.979Z,1.20
2022-11-21T23:06:14.291Z,1.10
2022-11-21T23:08:41.579Z,1.10
2022-11-21T23:11:08.207Z,1.10
2022-11-21T23:13:36.357Z,1.10
2022-11-21T23:16:05.275Z,1.10
2022-11-21T23:18:32.952Z,1.20
2022-11-21T23:21:00.078Z,1.20
2022-11-21T23:23:26.775Z,1.20
2022-11-21T23:25:53.904Z,1.20
2022-11-21T23:28:20.910Z,1.20
2022-11-21T23:30:48.582Z,1.20
2022-11-21T23:33:15.887Z,1.20
2022-11-21T23:35:43.784Z,1.10
2022-11-21T23:38:11.456Z,1.00
2022-11-21T23:40:38.164Z,1.00
2022-11-21T23:43:04.955Z,1.00
2022-11-21T23:45:32.564Z,1.00
2022-11-21T23:47:59.277Z,1.00
2022-11-21T23:55:44.112Z,1.00
2022-11-21T23:58:11.688Z,1.00
